Řízení letového provozu České republiky
OPMET data - Ceska Republika Aktualizace: 26.05.2019 23:06:30  UTC
SIGMET / AIRMET - NIL
Warning / Vystraha - NIL
AIREP - NIL
REG QNH
REGIONAL QNH FORECAST ISSUED 2019-05-26 20:43 AREA VALID FM/TL QNH/HPA/ : LKAA 262100/270000 1009 =
 
METAR / SPECI
METAR LKBC 262300Z AUTO VRB01KT 9999 BKN060 BKN076 14/11 Q1012=
METAR LKCV 262300Z VRB02KT CAVOK 15/11 Q1012 NOSIG RMK BLU BLU=
METAR LKKB 262300Z 19005KT CAVOK 13/09 Q1012 RMK BLU=
METAR LKKU NIL
METAR LKKV 262300Z 00000KT CAVOK 09/06 Q1013 RMK REG QNH 1009=
METAR LKLN 262300Z AUTO 00000KT 9999 FEW079 11/09 Q1013=
METAR LKMT 262300Z 21005KT CAVOK 13/12 Q1013 NOSIG RMK REG QNH 1009=
METAR LKNA 262300Z 19003KT CAVOK 15/11 Q1013 RMK BLU=
METAR LKPD 262300Z 00000KT CAVOK 15/11 Q1011 RMK BLU=
METAR LKPJ 262300Z AUTO 08002KT 9999 SCT078/// 13/11 Q1013=
METAR LKPR 262300Z 20007KT 150V220 CAVOK 12/08 Q1012 NOSIG RMK REG QNH 1009=
METAR LKTB 262300Z 04004KT CAVOK 16/12 Q1013 NOSIG RMK REG QNH 1009=
METAR LKVO NIL
TAF
TAF LKBC NIL
TAF LKCV 261700Z 2618/2718 24004KT CAVOK      BECMG 2707/2709 17005KT 9999 SCT028      BECMG 2711/2713 16015KT BKN035      TEMPO 2715/2718 16015G25KT 7000 SHRA BKN028=
TAF COR LKKB 261700Z 2618/2718 25008KT CAVOK      BECMG 2709/2711 SCT035      BECMG 2715/2717 BKN035=
TAF LKKU NIL
TAF LKKV 261700Z 2618/2800 23004KT CAVOK      BECMG 2707/2710 29014KT      TEMPO 2710/2715 SCT036TCU      BECMG 2717/2719 05003KT      BECMG 2722/2800 24003KT BKN036=
TAF LKLN NIL
TAF LKMT 261700Z 2618/2800 21010KT CAVOK      PROB30 TEMPO 2711/2716 23014G28KT 7000 SHRA SCT040TCU      BECMG 2718/2721 BKN040      TEMPO 2721/2800 RA=
TAF LKNA 261700Z 2618/2718 VRB02KT CAVOK      BECMG 2708/2710 14008KT      PROB40 TEMPO 2712/2718 16012G22KT 7000 SHRA SCT040TCU      BECMG 2716/2718 BKN030=
TAF LKPD 261700Z 2618/2718 26004KT CAVOK      PROB30 TEMPO 2712/2716 26016KT SHRA SCT030TCU=
TAF LKPJ NIL
TAF LKPR 261700Z 2618/2800 24006KT CAVOK      BECMG 2715/2718 17004KT SCT043      TEMPO 2718/2800 14014KT -RA BKN040      PROB30 TEMPO 2718/2800 9000 SHRA=
TAF LKTB 261700Z 2618/2800 23006KT CAVOK      BECMG 2618/2621 VRB02KT      BECMG 2707/2710 14008KT      TEMPO 2711/2716 22014G24KT 7000 SHRA SCT040CB      BECMG 2716/2718 BKN040      TEMPO 2718/2800 RA=
TAF LKVO NIL